Terminal Aerodrome Forecast
Issued by NWS

Home | Current Version | Previous Version | Text Only | Print | Product List | Glossary On
Versions: 1 2 3 4 5 6 7 8 9 10 11 12 13 14 15 16 17 18 19 20 21 22 23 24 25 26 27 28 29 30 31
000
FTUS43 KGRB 290543
TAFRHI
TAF
KRHI 290543Z 2906/3006 20006G14KT P6SM SCT008 OVC025
      TEMPO 2906/2910 3SM BR BKN008 OVC015
     FM291000 VRB03KT 3SM BR SCT002 OVC006
      TEMPO 2910/2913 1/2SM FG BKN002
     FM291500 19003KT 5SM BR OVC015
     FM291800 17005KT P6SM FEW015 BKN050
     FM292100 19004KT P6SM SCT050=

USA.gov is the U.S. government's official web portal to all federal, state and local government web resources and services.